Lepe, Spain
Current Conditions -  °F | °C
As of 3:00 PM on Wednesday 26 Nov 2014 (Local Time) from LPFR Reporting Station
Few Clouds Few Clouds  
Wind Chill: 64°   Ceiling: Unl
Heat Index: 64°   Visibility: 6mi
Dew Point: 57°   Wind: 14mph
Humidity: 77%   Direction: 170°S
Pressure: 29.8"   Gusts: NA
Location:  37.25°N, 7.2°W
Report Text: LPFR 261400Z 17012KT 9999 FEW018 18/14 Q1009
Loading
Personal Weather Stations






























Interactive Weather Map New forecast layout! Learn more

10-Day Weather Forecast

Advertisements
Track Severe Weather on mobile